Time;durP1;ratioP1;P1;durP2;ratioP2;P2;SDS_P1;SDS_P2;PMS_P1;PMS_P2;Temp;Humidity;BMP_temperature;BMP_pressure;BME280_temperature;BME280_humidity;BME280_pressure;Samples;Min_cycle;Max_cycle;Signal;HPM_P1;HPM_P2
2022/04/01 00:00:08;;;;;;;16.83;11.53;;;6.00;99.90;;;;;;4977826;28;20186;-86
2022/04/01 00:02:38;;;;;;;19.33;11.80;;;6.00;99.90;;;;;;4994374;28;20569;-86
2022/04/01 00:05:04;;;;;;;17.47;11.97;;;6.00;99.90;;;;;;4974251;28;20246;-86
2022/04/01 00:07:30;;;;;;;17.57;12.00;;;5.90;99.90;;;;;;4958648;28;20301;-86
2022/04/01 00:09:56;;;;;;;16.67;11.97;;;5.80;99.90;;;;;;4958282;28;20204;-86
2022/04/01 00:12:22;;;;;;;18.10;12.90;;;5.80;99.90;;;;;;4957658;28;20197;-86
2022/04/01 00:14:48;;;;;;;18.63;12.80;;;5.90;99.90;;;;;;4958685;28;20186;-86
2022/04/01 00:17:14;;;;;;;17.90;11.83;;;5.90;99.90;;;;;;4958520;28;20200;-86
2022/04/01 00:19:40;;;;;;;17.77;11.90;;;5.90;99.90;;;;;;4963287;28;20175;-86
2022/04/01 00:22:08;;;;;;;17.77;11.97;;;5.80;99.90;;;;;;4974394;28;20212;-86
2022/04/01 00:24:34;;;;;;;18.67;12.60;;;5.80;99.90;;;;;;4958489;28;20184;-86
2022/04/01 00:27:00;;;;;;;18.53;12.53;;;5.90;99.90;;;;;;4958358;28;20219;-86
2022/04/01 00:29:26;;;;;;;18.90;13.13;;;5.90;99.90;;;;;;4958125;28;20195;-86
2022/04/01 00:31:58;;;;;;;28.77;18.83;;;6.00;99.90;;;;;;4958558;28;20290;-86
2022/04/01 00:34:29;;;;;;;27.30;19.10;;;6.00;99.90;;;;;;4975763;28;20199;-86
2022/04/01 00:36:57;;;;;;;33.63;22.27;;;5.90;99.90;;;;;;4959285;28;20189;-86
2022/04/01 00:39:25;;;;;;;33.80;21.83;;;5.80;99.90;;;;;;4958818;28;20263;-86
2022/04/01 00:41:52;;;;;;;36.73;22.27;;;5.70;99.90;;;;;;4975339;28;20200;-86
2022/04/01 00:44:23;;;;;;;35.20;22.40;;;5.70;99.90;;;;;;4959339;28;20182;-85
2022/04/01 00:46:52;;;;;;;35.60;22.83;;;5.80;99.90;;;;;;4959176;28;20188;-86
2022/04/01 00:49:19;;;;;;;37.07;22.30;;;5.80;99.90;;;;;;4974815;28;20198;-86
2022/04/01 00:51:48;;;;;;;34.20;21.87;;;5.90;99.90;;;;;;4974898;28;20186;-86
2022/04/01 00:54:16;;;;;;;33.40;21.53;;;5.80;99.90;;;;;;4958099;28;20222;-86
2022/04/01 00:56:42;;;;;;;33.00;21.20;;;5.80;99.90;;;;;;4957926;28;20184;-86
2022/04/01 00:59:08;;;;;;;38.57;22.40;;;5.80;99.90;;;;;;4958154;28;20191;-86
2022/04/01 01:01:36;;;;;;;36.23;22.67;;;5.80;99.90;;;;;;4957985;28;20198;-86
2022/04/01 01:04:07;;;;;;;37.83;22.93;;;5.90;99.90;;;;;;4973988;28;20188;-86
2022/04/01 01:06:40;;;;;;;34.33;21.37;;;5.90;99.90;;;;;;4957683;28;20214;-86
2022/04/01 01:09:06;;;;;;;37.73;22.70;;;5.90;99.90;;;;;;4957822;28;20192;-86
2022/04/01 01:11:32;;;;;;;36.30;22.30;;;5.80;99.90;;;;;;4957824;28;20250;-85
2022/04/01 01:13:59;;;;;;;38.73;22.93;;;5.80;99.90;;;;;;4969744;28;20193;-86
2022/04/01 01:16:25;;;;;;;34.63;22.17;;;5.70;99.90;;;;;;4957670;28;20192;-86
2022/04/01 01:19:05;;;;;;;33.93;21.80;;;5.70;99.90;;;;;;4973436;28;20263;-86
2022/04/01 01:21:32;;;;;;;36.30;22.20;;;5.70;99.90;;;;;;4973803;28;20196;-85
2022/04/01 01:24:01;;;;;;;37.43;21.27;;;5.60;99.90;;;;;;4974359;28;20184;-86
2022/04/01 01:26:28;;;;;;;33.73;21.37;;;5.50;99.90;;;;;;4977523;28;20180;-86
2022/04/01 01:29:31;;;;;;;33.17;20.63;;;5.50;99.90;;;;;;4962824;28;20192;-86
2022/04/01 01:32:00;;;;;;;31.87;20.77;;;5.50;99.90;;;;;;4977527;28;20239;-86
2022/04/01 01:35:04;;;;;;;32.37;20.23;;;5.40;99.90;;;;;;4977090;28;20283;-86
2022/04/01 01:37:30;;;;;;;34.27;22.00;;;5.40;99.90;;;;;;4971532;28;20277;-86
2022/04/01 01:39:56;;;;;;;37.97;23.03;;;5.40;99.90;;;;;;4960846;28;20298;-86
2022/04/01 01:42:22;;;;;;;33.77;22.10;;;5.40;99.90;;;;;;4961034;28;20211;-86
2022/04/01 01:44:49;;;;;;;35.37;21.27;;;5.40;99.90;;;;;;4965519;28;20190;-86
2022/04/01 01:47:15;;;;;;;34.40;21.43;;;5.40;99.90;;;;;;4980035;28;20195;-86
2022/04/01 01:54:42;;;;;;;31.97;21.50;;;5.40;99.90;;;;;;4979825;28;20230;-85
2022/04/01 01:55:13;;;;;;;30.40;20.37;;;5.50;99.90;;;;;;5013821;28;20179;-86
2022/04/01 01:57:39;;;;;;;30.57;20.50;;;5.40;99.90;;;;;;4980051;28;20179;-86
2022/04/01 02:00:10;;;;;;;29.27;19.97;;;5.40;99.90;;;;;;4979938;28;20187;-86
2022/04/01 02:02:39;;;;;;;30.67;20.27;;;5.40;99.90;;;;;;4979726;28;20263;-86
2022/04/01 02:05:06;;;;;;;30.30;20.43;;;5.30;99.90;;;;;;4960586;28;20184;-86
2022/04/01 02:07:33;;;;;;;29.57;20.13;;;5.30;99.90;;;;;;4960613;28;20195;-86
2022/04/01 02:09:59;;;;;;;27.23;19.23;;;5.30;99.90;;;;;;4968659;28;20222;-86
2022/04/01 02:12:25;;;;;;;29.67;20.37;;;5.30;99.90;;;;;;4979843;28;20219;-86
2022/04/01 02:14:51;;;;;;;28.60;19.87;;;5.30;99.90;;;;;;4977212;28;20179;-85
2022/04/01 02:17:17;;;;;;;29.20;20.23;;;5.30;99.90;;;;;;4959770;28;20218;-86
2022/04/01 02:19:44;;;;;;;28.23;19.53;;;5.30;99.90;;;;;;4960233;28;20176;-86
2022/04/01 02:22:10;;;;;;;28.40;19.07;;;5.30;99.90;;;;;;4960287;28;20196;-86
2022/04/01 02:24:38;;;;;;;29.33;20.77;;;5.30;99.90;;;;;;4960477;28;20180;-86
2022/04/01 02:27:06;;;;;;;29.57;20.50;;;5.20;99.90;;;;;;4960359;28;20187;-86
2022/04/01 02:29:32;;;;;;;29.97;19.87;;;5.20;99.90;;;;;;4968473;28;20257;-86
2022/04/01 02:32:16;;;;;;;29.53;19.47;;;5.20;99.90;;;;;;5013486;28;20245;-86
2022/04/01 02:35:01;;;;;;;28.63;19.17;;;5.20;99.90;;;;;;4997878;28;20234;-86
2022/04/01 02:37:28;;;;;;;30.30;19.73;;;5.20;99.90;;;;;;4972629;28;20188;-85
2022/04/01 02:39:57;;;;;;;29.67;19.70;;;5.30;99.90;;;;;;4960032;28;20187;-86
2022/04/01 02:42:27;;;;;;;25.13;18.47;;;5.30;99.90;;;;;;4975911;28;20207;-86
2022/04/01 02:44:53;;;;;;;27.63;18.57;;;5.20;99.90;;;;;;4979489;28;20183;-86
2022/04/01 02:47:20;;;;;;;25.47;17.17;;;5.20;99.90;;;;;;4979440;28;20195;-86
2022/04/01 02:49:46;;;;;;;25.07;17.93;;;5.20;99.90;;;;;;4979043;28;20214;-86
2022/04/01 02:52:13;;;;;;;27.10;18.17;;;5.20;99.90;;;;;;4979007;28;20195;-85
2022/04/01 02:54:40;;;;;;;25.87;18.10;;;5.20;99.90;;;;;;4978852;28;20179;-86
2022/04/01 02:57:09;;;;;;;26.30;18.23;;;5.10;99.90;;;;;;4993925;28;20179;-86
2022/04/01 02:59:36;;;;;;;24.83;17.33;;;5.10;99.90;;;;;;4977744;28;20254;-86
2022/04/01 03:02:03;;;;;;;22.77;16.13;;;5.10;99.90;;;;;;4979222;28;20202;-86
2022/04/01 03:04:30;;;;;;;24.67;17.40;;;5.10;99.90;;;;;;4979074;28;20183;-86
2022/04/01 03:06:58;;;;;;;26.90;17.60;;;5.10;99.90;;;;;;4976273;28;20184;-86
2022/04/01 03:09:25;;;;;;;26.33;17.90;;;5.10;99.90;;;;;;4959264;28;20183;-86
2022/04/01 03:12:11;;;;;;;24.27;17.20;;;5.20;99.90;;;;;;4977075;28;20285;-86
2022/04/01 03:15:02;;;;;;;24.03;16.70;;;5.10;99.90;;;;;;4970697;28;20201;-86
2022/04/01 03:17:58;;;;;;;27.63;18.20;;;5.10;99.90;;;;;;4986453;28;20281;-86
2022/04/01 03:20:39;;;;;;;29.40;19.57;;;5.00;99.90;;;;;;4963754;28;20247;-86
2022/04/01 03:23:06;;;;;;;30.13;19.97;;;4.90;99.90;;;;;;4959316;28;20286;-86
2022/04/01 03:25:41;;;;;;;31.17;19.93;;;4.70;99.90;;;;;;4971452;28;20182;-85
2022/04/01 03:28:34;;;;;;;32.53;20.57;;;4.70;99.90;;;;;;4978296;28;20218;-86
2022/04/01 03:31:06;;;;;;;33.50;20.40;;;4.70;99.90;;;;;;4979157;28;20259;-85
2022/04/01 03:33:38;;;;;;;34.10;21.27;;;4.60;99.90;;;;;;4978829;28;20199;-86
2022/04/01 03:36:05;;;;;;;32.80;20.90;;;4.60;99.90;;;;;;4978264;28;20179;-86
2022/04/01 03:38:34;;;;;;;33.37;21.50;;;4.70;99.90;;;;;;4974796;28;20246;-86
2022/04/01 03:41:02;;;;;;;37.07;21.87;;;4.60;99.90;;;;;;4959034;28;20180;-86
2022/04/01 03:43:29;;;;;;;37.50;23.17;;;4.60;99.90;;;;;;4958976;28;20284;-86
2022/04/01 03:46:09;;;;;;;35.97;22.67;;;4.60;99.90;;;;;;4943401;28;20295;-86
2022/04/01 03:48:44;;;;;;;33.47;21.60;;;4.60;99.90;;;;;;4972627;28;20785;-86
2022/04/01 03:51:16;;;;;;;34.57;21.40;;;4.60;99.90;;;;;;4958482;28;20286;-85
2022/04/01 03:54:10;;;;;;;33.10;21.00;;;4.60;99.90;;;;;;4971959;28;20191;-85
2022/04/01 03:57:01;;;;;;;31.20;20.00;;;4.60;99.90;;;;;;4996997;28;20183;-86
2022/04/01 03:59:51;;;;;;;32.97;20.97;;;4.60;99.90;;;;;;4997007;28;20295;-86
2022/04/01 04:02:36;;;;;;;31.67;20.23;;;4.60;99.90;;;;;;4996384;28;20210;-86
2022/04/01 04:05:06;;;;;;;30.93;19.97;;;4.60;99.90;;;;;;4994769;28;20167;-86
2022/04/01 04:07:33;;;;;;;29.00;19.70;;;4.70;99.90;;;;;;4976086;28;20196;-86
2022/04/01 04:10:06;;;;;;;28.50;18.80;;;4.70;99.90;;;;;;4976606;28;20204;-86
2022/04/01 04:12:35;;;;;;;27.20;18.03;;;4.70;99.90;;;;;;4960983;28;20191;-86
2022/04/01 04:15:07;;;;;;;28.17;18.17;;;4.70;99.90;;;;;;4961429;28;20215;-86
2022/04/01 04:17:37;;;;;;;27.00;17.47;;;4.70;99.90;;;;;;4960815;28;20192;-86
2022/04/01 04:20:13;;;;;;;26.90;17.37;;;4.60;99.90;;;;;;4960687;28;20183;-86
2022/04/01 04:22:56;;;;;;;27.47;17.63;;;4.60;99.90;;;;;;4961214;28;20226;-86
2022/04/01 04:25:26;;;;;;;29.40;18.57;;;4.60;99.90;;;;;;4961020;28;20176;-86
2022/04/01 04:28:18;;;;;;;27.03;18.17;;;4.60;99.90;;;;;;4960246;28;20199;-86
2022/04/01 04:30:59;;;;;;;25.13;17.07;;;4.50;99.90;;;;;;4960877;28;20211;-86
2022/04/01 04:33:47;;;;;;;26.77;18.10;;;4.60;99.90;;;;;;4962115;28;20203;-86
2022/04/01 04:36:21;;;;;;;24.10;16.43;;;4.50;99.90;;;;;;4976916;28;20168;-86
2022/04/01 04:38:56;;;;;;;24.13;17.10;;;4.60;99.90;;;;;;4961593;28;20218;-86
2022/04/01 04:41:24;;;;;;;26.43;17.53;;;4.60;99.90;;;;;;4960438;28;20175;-86
2022/04/01 04:44:02;;;;;;;25.37;16.70;;;4.50;99.90;;;;;;4963022;28;20176;-86
2022/04/01 04:46:30;;;;;;;24.77;15.93;;;4.60;99.90;;;;;;4976389;28;20184;-86
2022/04/01 04:48:57;;;;;;;24.60;17.27;;;4.50;99.90;;;;;;4976587;28;20192;-86
2022/04/01 04:51:26;;;;;;;25.87;17.17;;;4.50;99.90;;;;;;4974565;28;20208;-86
2022/04/01 04:54:19;;;;;;;25.60;17.30;;;4.50;99.90;;;;;;4975931;28;20183;-85
2022/04/01 04:57:01;;;;;;;24.63;17.27;;;4.60;99.90;;;;;;4976516;28;20222;-86
2022/04/01 04:59:30;;;;;;;25.33;16.50;;;4.50;99.90;;;;;;4979621;28;20230;-86
2022/04/01 05:02:18;;;;;;;23.77;16.60;;;4.50;99.90;;;;;;4979998;28;20234;-86
2022/04/01 05:05:18;;;;;;;25.13;17.07;;;4.50;99.90;;;;;;4980420;28;20180;-86
2022/04/01 05:08:17;;;;;;;25.13;16.23;;;4.50;99.90;;;;;;4968555;28;20180;-86
2022/04/01 05:11:43;;;;;;;25.80;17.50;;;4.50;99.90;;;;;;4985126;28;20207;-86
2022/04/01 05:14:39;;;;;;;28.43;18.40;;;4.50;99.90;;;;;;4964138;28;20180;-86
2022/04/01 05:17:14;;;;;;;29.60;18.57;;;4.60;99.90;;;;;;4963800;28;20315;-86
2022/04/01 05:19:45;;;;;;;25.90;17.60;;;4.60;99.90;;;;;;4961917;28;20176;-86
2022/04/01 05:22:15;;;;;;;28.83;19.00;;;4.70;99.90;;;;;;4977561;28;20188;-87
2022/04/01 05:24:53;;;;;;;28.53;18.07;;;4.60;99.90;;;;;;4966298;28;20271;-87
2022/04/01 05:27:28;;;;;;;30.07;18.93;;;4.60;99.90;;;;;;4961632;28;20226;-87
2022/04/01 05:30:18;;;;;;;28.83;18.13;;;4.50;99.90;;;;;;4969726;28;20695;-87
2022/04/01 05:33:08;;;;;;;28.33;19.13;;;4.50;99.90;;;;;;4963364;28;20203;-87
2022/04/01 05:35:40;;;;;;;30.13;19.20;;;4.50;99.90;;;;;;4977255;28;20176;-87
2022/04/01 05:38:08;;;;;;;29.57;18.87;;;4.40;99.90;;;;;;4984687;28;20183;-87
2022/04/01 05:40:36;;;;;;;29.33;19.17;;;4.40;99.90;;;;;;4961170;28;20180;-87
2022/04/01 05:43:06;;;;;;;31.03;19.73;;;4.40;99.90;;;;;;4977058;28;20203;-86
2022/04/01 05:45:37;;;;;;;31.50;19.13;;;4.40;99.90;;;;;;4977506;28;20191;-87
2022/04/01 05:48:10;;;;;;;33.03;21.63;;;4.40;99.90;;;;;;4989369;28;20543;-87
2022/04/01 05:50:37;;;;;;;32.77;20.83;;;4.40;99.90;;;;;;4980185;28;20575;-86
2022/04/01 05:53:05;;;;;;;31.07;20.00;;;4.40;99.90;;;;;;4980460;28;20206;-86
2022/04/01 05:55:42;;;;;;;32.80;19.87;;;4.40;99.90;;;;;;4981242;28;20178;-86
2022/04/01 05:58:08;;;;;;;32.47;19.77;;;4.30;99.90;;;;;;4979982;28;20175;-86
2022/04/01 06:00:55;;;;;;;30.70;19.17;;;4.40;99.90;;;;;;4978539;28;20651;-86
2022/04/01 06:03:30;;;;;;;33.00;19.63;;;4.30;99.90;;;;;;4979907;28;20195;-86
2022/04/01 06:06:09;;;;;;;33.30;20.20;;;4.40;99.90;;;;;;4981240;28;20174;-87
2022/04/01 06:08:48;;;;;;;30.53;19.80;;;4.50;99.90;;;;;;4982622;28;20180;-86
2022/04/01 06:12:16;;;;;;;30.13;19.20;;;4.40;99.90;;;;;;5000829;28;20202;-85
2022/04/01 06:15:34;;;;;;;32.40;20.33;;;4.40;99.90;;;;;;4989572;28;20210;-86
2022/04/01 06:18:59;;;;;;;30.70;20.00;;;4.40;99.90;;;;;;4998821;28;20194;-86
2022/04/01 06:21:26;;;;;;;30.90;19.07;;;4.40;99.90;;;;;;4980165;28;20191;-86
2022/04/01 06:23:58;;;;;;;31.37;20.60;;;4.40;99.90;;;;;;4980108;28;20247;-86
2022/04/01 06:26:27;;;;;;;36.43;23.67;;;4.40;99.90;;;;;;4979675;28;20211;-86
2022/04/01 06:29:15;;;;;;;36.63;25.30;;;4.40;99.90;;;;;;4979220;28;20186;-86
2022/04/01 06:31:48;;;;;;;38.17;25.30;;;4.30;99.90;;;;;;4979343;28;20235;-87
2022/04/01 06:34:20;;;;;;;29.57;20.13;;;4.20;99.90;;;;;;4979380;28;20180;-80
2022/04/01 06:37:07;;;;;;;37.93;25.00;;;4.20;99.90;;;;;;4995310;28;20203;-86
2022/04/01 06:39:49;;;;;;;33.03;21.37;;;4.20;99.90;;;;;;4959498;28;20195;-86
2022/04/01 06:42:26;;;;;;;32.47;21.60;;;4.20;99.90;;;;;;4961682;28;20206;-86
2022/04/01 06:44:52;;;;;;;35.63;25.00;;;4.20;99.90;;;;;;4975889;28;20188;-86
2022/04/01 06:47:19;;;;;;;41.47;27.47;;;4.20;99.90;;;;;;4975847;28;20175;-86
2022/04/01 06:49:46;;;;;;;31.40;21.40;;;4.10;99.90;;;;;;4959159;28;20176;-86
2022/04/01 06:52:32;;;;;;;37.53;26.97;;;4.10;99.90;;;;;;4948986;28;20204;-86
2022/04/01 06:55:28;;;;;;;26.50;18.03;;;4.10;99.90;;;;;;4967433;28;20182;-86
2022/04/01 06:57:59;;;;;;;32.13;24.00;;;4.00;99.90;;;;;;4971738;28;20176;-86
2022/04/01 07:00:40;;;;;;;28.43;20.10;;;4.00;99.90;;;;;;4977230;28;20194;-86
2022/04/01 07:03:07;;;;;;;32.07;21.93;;;4.00;99.90;;;;;;4976633;28;20290;-85
2022/04/01 07:05:35;;;;;;;30.90;21.87;;;3.90;99.90;;;;;;4976172;28;20222;-87
2022/04/01 07:08:07;;;;;;;30.80;21.37;;;3.90;99.90;;;;;;4987352;28;20194;-87
2022/04/01 07:10:34;;;;;;;30.37;21.57;;;3.90;99.90;;;;;;4976941;28;20200;-87
2022/04/01 07:13:00;;;;;;;22.30;16.53;;;3.90;99.90;;;;;;4978437;28;20203;-86
2022/04/01 07:15:26;;;;;;;24.37;17.30;;;3.90;99.90;;;;;;4979024;28;20187;-86
2022/04/01 07:17:52;;;;;;;25.17;17.80;;;3.90;99.90;;;;;;4979035;28;20194;-86
2022/04/01 07:20:20;;;;;;;27.97;19.77;;;3.90;99.90;;;;;;4978390;28;20220;-86
2022/04/01 07:22:46;;;;;;;23.07;16.53;;;3.80;99.90;;;;;;4978961;28;20297;-86
2022/04/01 07:25:12;;;;;;;31.03;22.30;;;3.80;99.90;;;;;;4978326;28;20190;-86
2022/04/01 07:27:39;;;;;;;27.60;20.43;;;3.80;99.90;;;;;;4978440;28;20186;-86
2022/04/01 07:30:08;;;;;;;24.67;17.43;;;3.80;99.90;;;;;;4978425;28;20297;-86
2022/04/01 07:32:36;;;;;;;24.60;17.57;;;3.80;99.90;;;;;;4979011;28;20223;-86
2022/04/01 07:35:05;;;;;;;26.73;19.77;;;3.90;99.90;;;;;;4978376;28;20175;-86
2022/04/01 07:37:31;;;;;;;21.90;16.60;;;4.00;99.90;;;;;;4978738;28;20187;-86
2022/04/01 07:39:58;;;;;;;21.13;16.00;;;3.90;99.90;;;;;;4974481;28;20191;-86
2022/04/01 07:42:25;;;;;;;23.00;16.93;;;3.90;99.90;;;;;;4974917;28;20558;-86
2022/04/01 07:44:52;;;;;;;20.77;14.80;;;3.90;99.90;;;;;;4975282;28;20194;-86
2022/04/01 07:47:19;;;;;;;22.40;15.43;;;3.90;99.90;;;;;;4974939;28;20187;-87
2022/04/01 07:49:46;;;;;;;18.67;15.17;;;3.90;99.90;;;;;;4977005;28;20184;-87
2022/04/01 07:52:14;;;;;;;21.07;15.20;;;3.90;99.90;;;;;;4977624;28;20250;-87
2022/04/01 07:54:42;;;;;;;18.53;14.33;;;4.00;99.90;;;;;;4990132;28;20281;-86
2022/04/01 07:57:13;;;;;;;20.03;14.57;;;3.90;99.90;;;;;;4959720;28;20176;-86
2022/04/01 07:59:39;;;;;;;18.73;14.20;;;4.00;99.90;;;;;;4959277;28;20184;-87
2022/04/01 08:02:06;;;;;;;18.60;13.93;;;4.00;99.90;;;;;;4959609;28;20200;-86
2022/04/01 08:04:33;;;;;;;19.67;15.40;;;4.00;99.90;;;;;;4968210;28;20593;-87
2022/04/01 08:06:59;;;;;;;17.63;14.20;;;4.00;99.90;;;;;;4986150;28;20183;-86
2022/04/01 08:09:25;;;;;;;19.50;14.33;;;4.00;99.90;;;;;;4975320;28;20179;-86
2022/04/01 08:11:52;;;;;;;17.97;13.70;;;4.00;99.90;;;;;;4963218;28;20211;-86
2022/04/01 08:14:18;;;;;;;16.83;13.20;;;4.00;99.90;;;;;;4968842;28;20185;-86
2022/04/01 08:16:49;;;;;;;19.77;14.93;;;4.00;99.90;;;;;;4970991;28;20218;-87
2022/04/01 08:19:15;;;;;;;18.93;14.30;;;4.00;99.90;;;;;;4983135;28;20226;-87
2022/04/01 08:21:47;;;;;;;18.97;14.83;;;4.00;99.90;;;;;;4985169;28;20180;-87
2022/04/01 08:24:19;;;;;;;18.77;14.33;;;4.00;99.90;;;;;;4983067;28;20275;-87
2022/04/01 08:26:45;;;;;;;19.27;14.23;;;4.10;99.90;;;;;;4987146;28;20190;-87
2022/04/01 08:29:11;;;;;;;18.67;14.53;;;4.20;99.90;;;;;;4964714;28;20194;-87
2022/04/01 08:31:39;;;;;;;17.90;14.17;;;4.20;99.90;;;;;;4970760;28;20203;-87
2022/04/01 08:34:11;;;;;;;20.70;14.87;;;4.20;99.90;;;;;;4974917;28;20176;-86
2022/04/01 08:36:37;;;;;;;18.00;14.17;;;4.30;99.90;;;;;;4978322;28;20182;-86
2022/04/01 08:39:03;;;;;;;19.67;15.07;;;4.40;99.90;;;;;;4965856;28;20184;-86
2022/04/01 08:41:29;;;;;;;18.33;14.00;;;4.40;99.90;;;;;;4974170;28;20193;-86
2022/04/01 08:43:55;;;;;;;19.43;14.20;;;4.40;99.90;;;;;;4979425;28;20187;-86
2022/04/01 08:46:22;;;;;;;43.23;30.70;;;4.30;99.90;;;;;;4993878;28;20180;-86
2022/04/01 08:48:50;;;;;;;37.53;33.43;;;4.40;99.90;;;;;;4978542;28;20171;-86
2022/04/01 08:51:22;;;;;;;24.83;19.00;;;4.40;99.90;;;;;;4979045;28;20229;-86
2022/04/01 08:53:48;;;;;;;21.20;16.43;;;4.40;99.90;;;;;;4971852;28;20198;-86
2022/04/01 08:56:18;;;;;;;20.10;15.80;;;4.40;99.90;;;;;;4967617;28;20182;-86
2022/04/01 08:58:45;;;;;;;22.03;17.10;;;4.30;99.90;;;;;;4958675;28;20183;-87
2022/04/01 09:01:14;;;;;;;21.87;16.53;;;4.30;99.90;;;;;;4971247;28;20202;-86
2022/04/01 09:03:42;;;;;;;19.67;14.83;;;4.20;99.90;;;;;;4973809;28;20204;-86
2022/04/01 09:06:09;;;;;;;21.97;17.07;;;4.20;99.90;;;;;;4968873;28;20203;-86
2022/04/01 09:08:38;;;;;;;22.63;18.87;;;4.20;99.90;;;;;;4983422;28;20194;-86
2022/04/01 09:11:06;;;;;;;20.37;18.10;;;4.20;99.90;;;;;;4983607;28;20758;-86
2022/04/01 09:13:51;;;;;;;19.33;14.17;;;4.10;99.90;;;;;;4966635;28;20207;-86
2022/04/01 09:16:38;;;;;;;17.90;13.20;;;4.10;99.90;;;;;;4975133;28;20219;-87
2022/04/01 09:19:06;;;;;;;19.23;13.90;;;4.10;99.90;;;;;;4966169;28;20180;-86
2022/04/01 09:21:39;;;;;;;25.37;20.03;;;4.20;99.90;;;;;;4974942;28;20185;-86
2022/04/01 09:24:06;;;;;;;17.73;14.37;;;4.20;99.90;;;;;;4984753;28;20190;-86
2022/04/01 09:26:40;;;;;;;15.73;12.37;;;4.00;99.90;;;;;;4974506;28;20603;-87
2022/04/01 09:29:08;;;;;;;16.10;12.00;;;4.00;99.90;;;;;;4941329;28;20200;-86
2022/04/01 09:31:37;;;;;;;17.17;14.90;;;4.00;99.90;;;;;;4973812;28;20203;-86
2022/04/01 09:34:09;;;;;;;16.43;12.27;;;4.00;99.90;;;;;;4981367;28;20199;-86
2022/04/01 09:36:37;;;;;;;17.13;12.57;;;4.10;99.90;;;;;;4978017;28;20176;-86
2022/04/01 09:39:14;;;;;;;15.77;12.43;;;4.10;99.90;;;;;;4983390;28;20188;-86
2022/04/01 09:41:45;;;;;;;15.97;13.07;;;4.10;99.90;;;;;;4983653;28;20177;-86
2022/04/01 09:44:15;;;;;;;18.03;13.07;;;4.00;99.90;;;;;;4977589;28;20194;-86
2022/04/01 09:46:48;;;;;;;16.13;12.07;;;3.80;99.90;;;;;;4978928;28;20184;-86
2022/04/01 09:49:31;;;;;;;14.57;12.20;;;3.80;99.90;;;;;;4971782;28;20183;-86
2022/04/01 09:51:57;;;;;;;14.37;11.30;;;3.80;99.90;;;;;;4974428;28;20204;-86
2022/04/01 09:54:24;;;;;;;15.23;11.27;;;3.80;99.90;;;;;;4979243;28;20182;-86
2022/04/01 09:56:55;;;;;;;15.80;10.33;;;3.80;99.90;;;;;;4966362;28;20199;-86
2022/04/01 09:59:31;;;;;;;15.40;11.13;;;3.90;99.90;;;;;;4998560;28;20226;-86
2022/04/01 10:01:58;;;;;;;12.93;10.60;;;3.90;99.90;;;;;;4979600;28;20297;-86
2022/04/01 10:04:23;;;;;;;18.10;13.63;;;3.90;99.90;;;;;;4984685;28;20201;-86
2022/04/01 10:06:49;;;;;;;65.50;59.30;;;3.90;99.90;;;;;;4997293;28;20237;-87
2022/04/01 10:09:19;;;;;;;14.03;11.40;;;3.90;99.90;;;;;;4977308;28;20195;-87
2022/04/01 10:11:50;;;;;;;14.77;11.37;;;4.00;99.90;;;;;;4978008;28;20229;-86
2022/04/01 10:14:22;;;;;;;14.37;10.97;;;3.90;99.90;;;;;;4969063;28;20230;-86
2022/04/01 10:16:49;;;;;;;14.10;10.77;;;3.90;99.90;;;;;;4972379;28;20190;-86
2022/04/01 10:19:29;;;;;;;11.63;9.57;;;3.90;99.90;;;;;;4970815;28;20183;-86
2022/04/01 10:21:56;;;;;;;12.20;9.33;;;3.90;99.90;;;;;;4978680;28;20210;-86
2022/04/01 10:24:41;;;;;;;13.50;10.50;;;3.90;99.90;;;;;;4976592;28;20188;-86
2022/04/01 10:27:25;;;;;;;12.37;9.73;;;3.90;99.90;;;;;;4964769;28;20206;-86
2022/04/01 10:29:56;;;;;;;14.40;10.13;;;3.90;99.90;;;;;;4980260;28;20182;-86
2022/04/01 10:32:29;;;;;;;12.93;10.30;;;4.00;99.90;;;;;;4967417;28;20203;-86
2022/04/01 10:34:58;;;;;;;12.47;9.67;;;4.00;99.90;;;;;;4984960;28;20211;-86
2022/04/01 10:37:27;;;;;;;10.10;8.77;;;4.00;99.90;;;;;;4980539;28;20179;-86
2022/04/01 10:40:15;;;;;;;28.20;18.10;;;3.90;99.90;;;;;;4973088;28;20179;-84
2022/04/01 10:42:42;;;;;;;11.47;8.97;;;4.00;99.90;;;;;;4977910;28;20366;-86
2022/04/01 10:45:28;;;;;;;10.67;9.20;;;3.90;99.90;;;;;;4960197;28;20172;-86
2022/04/01 10:53:51;;;;;;;11.03;9.40;;;3.90;99.90;;;;;;4975667;28;20214;-87
2022/04/01 10:56:23;;;;;;;9.33;8.00;;;3.90;99.90;;;;;;4959173;28;20225;-86
2022/04/01 10:59:15;;;;;;;10.13;8.37;;;3.80;99.90;;;;;;4959445;28;20214;-87
2022/04/01 11:02:01;;;;;;;10.50;7.93;;;3.80;99.90;;;;;;4969364;28;20202;-86
2022/04/01 11:04:27;;;;;;;9.77;8.17;;;3.80;99.90;;;;;;4977020;28;20222;-86
2022/04/01 11:07:11;;;;;;;32.97;20.40;;;3.80;99.90;;;;;;4995701;28;20188;-86
2022/04/01 11:09:37;;;;;;;10.93;9.47;;;3.80;99.90;;;;;;4978552;28;20172;-86
2022/04/01 11:12:15;;;;;;;11.77;9.43;;;3.90;99.90;;;;;;4984318;28;20211;-87
2022/04/01 11:15:12;;;;;;;9.37;8.33;;;3.90;99.90;;;;;;4985513;28;21208;-86
2022/04/01 11:17:47;;;;;;;9.17;7.63;;;3.90;99.90;;;;;;4977017;28;20239;-87
2022/04/01 11:20:19;;;;;;;9.23;7.73;;;3.90;99.90;;;;;;4982413;28;20248;-87
2022/04/01 11:23:23;;;;;;;8.90;7.37;;;3.90;99.90;;;;;;4961212;28;20227;-87
2022/04/01 11:25:51;;;;;;;7.70;6.73;;;3.90;99.90;;;;;;4962048;28;20191;-87
2022/04/01 11:28:17;;;;;;;8.20;6.80;;;3.80;99.90;;;;;;4961740;28;20187;-87
2022/04/01 11:31:02;;;;;;;7.37;6.47;;;3.80;99.90;;;;;;4961585;28;20214;-87
2022/04/01 11:33:33;;;;;;;8.17;7.03;;;3.90;99.90;;;;;;4978284;28;20214;-87
2022/04/01 11:35:59;;;;;;;8.77;7.33;;;3.90;99.90;;;;;;4961601;28;20179;-87
2022/04/01 11:38:28;;;;;;;7.47;6.37;;;4.00;99.90;;;;;;4977711;28;20187;-87
2022/04/01 11:41:26;;;;;;;6.40;5.73;;;4.00;99.90;;;;;;4976929;28;20188;-87
2022/04/01 11:43:52;;;;;;;7.93;6.37;;;4.00;99.90;;;;;;4961164;28;20239;-87
2022/04/01 11:46:19;;;;;;;7.83;6.40;;;4.00;99.90;;;;;;4961657;28;20245;-87
2022/04/01 11:48:46;;;;;;;9.77;7.70;;;4.00;99.90;;;;;;4961181;28;20182;-87
2022/04/01 11:51:14;;;;;;;10.10;9.03;;;3.90;99.90;;;;;;4970826;28;20234;-87
2022/04/01 11:53:45;;;;;;;17.20;13.93;;;3.80;99.90;;;;;;4975105;28;20191;-87
2022/04/01 11:56:12;;;;;;;8.40;7.40;;;3.90;99.90;;;;;;4979194;28;20205;-87
2022/04/01 11:58:47;;;;;;;8.90;6.70;;;3.80;99.90;;;;;;4976233;28;20215;-87
2022/04/01 12:01:56;;;;;;;6.63;5.47;;;3.80;99.90;;;;;;4982323;28;20188;-87
2022/04/01 12:04:29;;;;;;;6.23;5.57;;;3.80;99.90;;;;;;4978011;28;20183;-87
2022/04/01 12:09:42;;;;;;;7.00;6.23;;;3.90;99.90;;;;;;4987686;28;20186;-87
2022/04/01 12:12:09;;;;;;;6.87;6.17;;;3.80;99.90;;;;;;4979242;28;20215;-88
2022/04/01 12:14:37;;;;;;;7.20;6.47;;;3.90;99.90;;;;;;4996547;28;20171;-88
2022/04/01 12:17:07;;;;;;;6.43;5.83;;;3.90;99.90;;;;;;4979580;28;20285;-83
2022/04/01 12:19:34;;;;;;;6.27;5.67;;;3.90;99.90;;;;;;4993272;28;20179;-90
2022/04/01 12:22:01;;;;;;;6.47;5.83;;;3.80;99.90;;;;;;4966838;28;20206;-88
2022/04/01 12:24:34;;;;;;;6.00;5.47;;;3.70;99.90;;;;;;4979936;28;20210;-88
2022/04/01 12:27:01;;;;;;;6.63;5.90;;;3.70;99.90;;;;;;4980318;28;20205;-88
2022/04/01 12:29:28;;;;;;;6.80;6.10;;;3.80;99.90;;;;;;4979505;28;20237;-88
2022/04/01 12:32:03;;;;;;;6.97;6.27;;;3.80;99.90;;;;;;4979827;28;20315;-88
2022/04/01 12:35:02;;;;;;;7.17;6.47;;;3.70;99.90;;;;;;4980247;28;20266;-88
2022/04/01 12:37:28;;;;;;;7.73;6.93;;;3.70;99.90;;;;;;4972860;28;20192;-88
2022/04/01 12:39:57;;;;;;;7.77;6.73;;;3.70;99.90;;;;;;4960305;28;20238;-88
2022/04/01 12:42:24;;;;;;;8.53;7.53;;;3.70;99.90;;;;;;4960236;28;20569;-88
2022/04/01 12:44:56;;;;;;;8.87;7.30;;;3.70;99.90;;;;;;4960010;28;20190;-88
2022/04/01 12:47:30;;;;;;;7.77;6.97;;;3.80;99.90;;;;;;4959496;28;20183;-88
2022/04/01 12:49:56;;;;;;;8.47;7.47;;;3.80;99.90;;;;;;4959705;28;20262;-88
2022/04/01 12:52:32;;;;;;;9.77;8.60;;;3.80;99.90;;;;;;4959693;28;20298;-88
2022/04/01 12:55:01;;;;;;;12.70;9.33;;;3.90;99.90;;;;;;4959324;28;20314;-88
2022/04/01 12:57:27;;;;;;;9.67;8.60;;;3.90;99.90;;;;;;4959691;28;20176;-88
2022/04/01 12:59:56;;;;;;;8.87;8.00;;;3.80;99.90;;;;;;4963366;28;20273;-88
2022/04/01 13:02:24;;;;;;;12.27;9.97;;;3.70;99.90;;;;;;4966688;28;20199;-88
2022/04/01 13:04:53;;;;;;;9.07;8.17;;;3.80;99.90;;;;;;4975778;28;20622;-88
2022/04/01 13:07:22;;;;;;;8.87;7.53;;;3.80;99.90;;;;;;4965118;28;20281;-89
2022/04/01 13:09:59;;;;;;;8.53;7.30;;;3.80;99.90;;;;;;4978802;28;20198;-89
2022/04/01 13:12:29;;;;;;;7.63;6.90;;;3.80;99.90;;;;;;4965654;28;20197;-88
2022/04/01 13:15:02;;;;;;;7.60;6.80;;;3.80;99.90;;;;;;4972626;28;20186;-88
2022/04/01 13:17:40;;;;;;;8.10;6.90;;;3.80;99.90;;;;;;4962936;28;20206;-88
2022/04/01 13:20:08;;;;;;;8.27;7.30;;;3.80;99.90;;;;;;4962458;28;20160;-88